Time;durP1;ratioP1;P1;durP2;ratioP2;P2;SDS_P1;SDS_P2;PMS_P1;PMS_P2;Temp;Humidity;BMP_temperature;BMP_pressure;BME280_temperature;BME280_humidity;BME280_pressure;Samples;Min_cycle;Max_cycle;Signal;HPM_P1;HPM_P2
2023/12/03 00:03:49;;;;;;;61.47;25.90;;;;;;;-1.49;87.25;100628.78;10468600;28;20037;-80
2023/12/03 00:08:52;;;;;;;57.67;24.98;;;;;;;-1.57;88.20;100632.53;10471172;28;20096;-79
2023/12/03 00:13:56;;;;;;;41.65;15.63;;;;;;;-1.64;88.52;100635.34;10461059;28;20065;-80
2023/12/03 00:18:59;;;;;;;57.42;23.92;;;;;;;-1.40;87.95;100630.31;10480375;28;20071;-80
2023/12/03 00:24:03;;;;;;;63.38;27.77;;;;;;;-1.68;89.76;100633.69;10473812;28;20462;-80
2023/12/03 00:29:08;;;;;;;55.90;24.65;;;;;;;-1.46;88.45;100630.47;10477383;28;20041;-79
2023/12/03 00:34:13;;;;;;;54.78;22.73;;;;;;;-1.90;91.19;100635.16;10473350;28;20057;-79
2023/12/03 00:39:16;;;;;;;58.90;22.00;;;;;;;-1.48;90.22;100632.28;10469048;28;20515;-79
2023/12/03 00:44:21;;;;;;;66.03;26.02;;;;;;;-1.33;88.36;100634.50;10485603;28;20037;-81
2023/12/03 00:49:24;;;;;;;63.88;25.35;;;;;;;-1.37;89.01;100632.00;10477702;28;20052;-78
2023/12/03 00:54:28;;;;;;;65.30;27.70;;;;;;;-1.47;89.84;100639.31;10478166;28;20068;-79
2023/12/03 00:59:33;;;;;;;57.95;23.75;;;;;;;-1.28;89.02;100637.88;10473071;28;20049;-79
2023/12/03 01:04:36;;;;;;;67.82;26.63;;;;;;;-1.47;91.01;100641.94;10467861;28;20036;-79
2023/12/03 01:09:40;;;;;;;66.07;26.77;;;;;;;-1.82;94.56;100656.03;10474155;28;20116;-80
2023/12/03 01:14:44;;;;;;;57.05;21.75;;;;;;;-1.56;92.59;100661.50;10467755;28;20068;-79
2023/12/03 01:19:47;;;;;;;67.47;27.10;;;;;;;-1.33;91.17;100649.47;10472652;28;20927;-78
2023/12/03 01:24:50;;;;;;;66.15;25.45;;;;;;;-1.36;92.04;100657.47;10475147;28;20345;-78
2023/12/03 01:29:54;;;;;;;74.53;29.42;;;;;;;-1.38;91.64;100678.56;10483330;28;20067;-79
2023/12/03 01:34:57;;;;;;;76.10;31.05;;;;;;;-1.36;91.53;100673.28;10478247;28;20120;-80
2023/12/03 01:40:00;;;;;;;60.78;23.60;;;;;;;-1.47;92.48;100681.47;10463235;28;20053;-79
2023/12/03 01:45:06;;;;;;;77.00;33.25;;;;;;;-1.35;92.56;100680.25;10454062;28;20041;-79
2023/12/03 01:50:11;;;;;;;64.95;24.55;;;;;;;-1.52;93.91;100681.59;10471051;28;20057;-79
2023/12/03 01:55:17;;;;;;;76.13;29.00;;;;;;;-1.43;95.68;100689.22;10468015;28;20079;-80
2023/12/03 02:00:22;;;;;;;94.00;37.22;;;;;;;-1.41;95.53;100691.84;10467394;28;20076;-79
2023/12/03 02:05:26;;;;;;;84.63;29.50;;;;;;;-1.52;95.08;100696.53;10479382;28;20041;-79
2023/12/03 02:10:31;;;;;;;78.47;32.60;;;;;;;-1.44;94.76;100700.69;10479303;28;20453;-79
2023/12/03 02:15:36;;;;;;;84.93;34.20;;;;;;;-1.09;93.17;100693.59;10471268;28;20125;-80
2023/12/03 02:20:39;;;;;;;78.88;32.78;;;;;;;-1.56;95.89;100706.28;10474073;28;20068;-79
2023/12/03 02:25:43;;;;;;;80.95;30.83;;;;;;;-1.28;94.64;100695.03;10458240;28;20067;-80
2023/12/03 02:30:46;;;;;;;79.03;35.55;;;;;;;-1.46;95.44;100702.50;10484582;28;20055;-78
2023/12/03 02:35:50;;;;;;;80.03;32.50;;;;;;;-1.42;95.81;100705.94;10474438;28;20044;-80
2023/12/03 02:40:58;;;;;;;76.45;30.63;;;;;;;-1.55;96.64;100702.75;10468978;28;20141;-78
2023/12/03 02:46:01;;;;;;;70.93;26.55;;;;;;;-1.21;93.77;100710.63;10452745;28;20091;-79
2023/12/03 02:51:05;;;;;;;84.63;26.42;;;;;;;-1.32;94.30;100720.56;10462664;28;20124;-79
2023/12/03 02:56:12;;;;;;;55.78;24.55;;;;;;;-1.25;94.32;100711.59;10458814;28;20057;-80
2023/12/03 03:01:15;;;;;;;87.68;30.77;;;;;;;-1.25;94.57;100718.66;10474978;28;20136;-80
2023/12/03 03:06:18;;;;;;;71.13;26.48;;;;;;;-1.12;93.20;100727.97;10479327;28;20043;-80
2023/12/03 03:11:22;;;;;;;70.05;29.15;;;;;;;-1.22;93.34;100726.47;10482340;28;20045;-79
2023/12/03 03:16:26;;;;;;;72.63;28.55;;;;;;;-1.17;94.56;100724.59;10457346;28;20037;-80
2023/12/03 03:21:29;;;;;;;65.80;27.13;;;;;;;-1.13;93.98;100720.09;10465548;28;20045;-80
2023/12/03 03:26:34;;;;;;;63.20;25.60;;;;;;;-1.35;95.41;100733.84;10461744;28;20033;-80
2023/12/03 03:31:37;;;;;;;74.85;28.95;;;;;;;-1.35;96.53;100728.56;10451424;28;20661;-80
2023/12/03 03:36:40;;;;;;;60.47;25.90;;;;;;;-1.36;97.25;100726.84;10457225;28;20048;-80
2023/12/03 03:41:44;;;;;;;43.22;16.55;;;;;;;-1.38;96.55;100728.66;10464831;28;20051;-80
2023/12/03 03:46:47;;;;;;;44.13;20.50;;;;;;;-1.67;97.78;100732.91;10457815;28;20043;-79
2023/12/03 03:51:51;;;;;;;71.07;29.08;;;;;;;-1.49;96.92;100733.34;10485694;28;20079;-77
2023/12/03 03:56:55;;;;;;;82.15;34.05;;;;;;;-0.88;93.97;100726.41;10483869;28;20052;-80
2023/12/03 04:01:58;;;;;;;73.70;31.25;;;;;;;-1.19;95.65;100719.34;10479186;28;20096;-81
2023/12/03 04:07:01;;;;;;;54.13;20.48;;;;;;;-1.38;97.54;100731.28;10484113;28;20037;-80
2023/12/03 04:12:07;;;;;;;82.50;32.35;;;;;;;-1.25;96.17;100730.06;10489917;28;20045;-80
2023/12/03 04:17:10;;;;;;;52.28;24.15;;;;;;;-1.37;96.29;100745.31;10461136;28;20038;-79
2023/12/03 04:22:13;;;;;;;56.50;21.98;;;;;;;-1.43;97.89;100747.22;10481596;28;20104;-80
2023/12/03 04:27:18;;;;;;;86.45;32.75;;;;;;;-1.34;97.12;100745.25;10472043;28;20096;-80
2023/12/03 04:32:21;;;;;;;89.40;35.08;;;;;;;-1.38;97.08;100751.50;10502673;28;20048;-79
2023/12/03 04:37:24;;;;;;;80.05;32.35;;;;;;;-1.22;96.41;100756.34;10465891;28;20452;-79
2023/12/03 04:42:29;;;;;;;72.38;26.80;;;;;;;-1.48;97.79;100745.59;10463039;28;20084;-79
2023/12/03 04:47:32;;;;;;;64.63;22.27;;;;;;;-1.30;96.62;100757.44;10480328;28;20057;-79
2023/12/03 04:52:35;;;;;;;87.20;32.15;;;;;;;-1.04;95.80;100756.75;10461785;28;20041;-80
2023/12/03 04:57:40;;;;;;;75.65;27.35;;;;;;;-1.31;98.17;100759.22;10462709;28;20475;-79
2023/12/03 05:02:43;;;;;;;49.30;20.92;;;;;;;-1.41;97.19;100771.75;10464647;28;20123;-79
2023/12/03 05:07:46;;;;;;;62.53;24.00;;;;;;;-1.47;97.32;100771.94;10484588;28;20048;-79
2023/12/03 05:12:51;;;;;;;82.25;34.72;;;;;;;-1.72;100.00;100782.19;10469536;28;20039;-78
2023/12/03 05:17:54;;;;;;;56.88;22.55;;;;;;;-1.28;97.30;100803.09;10482883;28;20063;-78
2023/12/03 05:22:57;;;;;;;65.53;26.23;;;;;;;-1.15;96.60;100808.91;10466838;28;20048;-81
2023/12/03 05:28:01;;;;;;;73.28;30.65;;;;;;;-1.22;97.54;100810.84;10477224;28;20029;-80
2023/12/03 05:33:04;;;;;;;77.32;28.60;;;;;;;-1.20;96.44;100811.69;10475341;28;20044;-78
2023/12/03 05:38:07;;;;;;;90.22;32.53;;;;;;;-1.07;95.96;100818.38;10471313;28;20057;-78
2023/12/03 05:43:12;;;;;;;81.47;30.52;;;;;;;-0.95;94.38;100828.59;10467951;28;20037;-79
2023/12/03 05:48:15;;;;;;;83.35;28.63;;;;;;;-1.06;96.37;100838.53;10466907;28;20038;-79
2023/12/03 05:53:18;;;;;;;85.47;33.75;;;;;;;-0.99;96.81;100833.97;10465205;28;20037;-79
2023/12/03 05:58:22;;;;;;;99.75;36.40;;;;;;;-0.65;93.82;100843.66;10459536;28;20040;-79
2023/12/03 06:03:26;;;;;;;97.93;36.67;;;;;;;-1.01;94.91;100843.72;10467120;28;20029;-80
2023/12/03 06:08:29;;;;;;;97.50;36.28;;;;;;;-1.14;97.10;100848.44;10480220;28;20131;-79
2023/12/03 06:13:33;;;;;;;99.90;41.08;;;;;;;-0.90;95.99;100857.50;10461777;28;20049;-79
2023/12/03 06:18:36;;;;;;;93.15;36.83;;;;;;;-0.87;96.35;100867.97;10474294;28;20065;-78
2023/12/03 06:23:39;;;;;;;64.00;26.02;;;;;;;-0.96;95.90;100862.91;10465491;28;20052;-79
2023/12/03 06:28:44;;;;;;;92.63;38.33;;;;;;;-1.43;99.27;100867.56;10462427;28;20043;-79
2023/12/03 06:33:47;;;;;;;92.78;36.20;;;;;;;-1.10;99.05;100871.16;10472813;28;20132;-79
2023/12/03 06:38:50;;;;;;;92.13;36.78;;;;;;;-0.78;96.19;100870.34;10460806;28;20037;-79
2023/12/03 06:43:54;;;;;;;92.18;36.00;;;;;;;-0.87;96.78;100875.00;10458714;28;20100;-79
2023/12/03 06:48:57;;;;;;;87.70;34.00;;;;;;;-0.93;96.94;100883.94;10453124;28;20047;-78
2023/12/03 06:54:04;;;;;;;78.13;30.75;;;;;;;-0.86;95.96;100887.28;10459998;28;20061;-79
2023/12/03 06:59:10;;;;;;;66.15;24.85;;;;;;;-1.47;100.00;100903.69;10457255;28;20467;-79
2023/12/03 07:04:13;;;;;;;74.55;28.17;;;;;;;-1.37;100.00;100907.00;10447367;28;20060;-79
2023/12/03 07:09:16;;;;;;;67.45;26.17;;;;;;;-1.10;97.91;100915.97;10473801;28;20041;-78
2023/12/03 07:14:40;;;;;;;55.83;21.77;;;;;;;-1.53;99.71;100911.75;10479900;28;20107;-78
2023/12/03 07:19:44;;;;;;;69.85;25.92;;;;;;;-1.10;98.18;100923.03;10464413;28;20049;-79
2023/12/03 07:24:47;;;;;;;71.53;22.60;;;;;;;-0.97;96.76;100921.84;10469276;28;20124;-79
2023/12/03 07:29:55;;;;;;;59.33;23.38;;;;;;;-1.26;98.19;100930.44;10457024;28;20120;-79
2023/12/03 07:34:58;;;;;;;59.80;24.55;;;;;;;-1.09;97.94;100944.09;10482717;28;20051;-79
2023/12/03 07:40:01;;;;;;;67.75;26.70;;;;;;;-0.47;98.81;100942.56;10458429;28;20095;-79
2023/12/03 07:45:06;;;;;;;74.05;26.00;;;;;;;-0.11;94.50;100946.84;10457455;28;20041;-78
2023/12/03 07:50:10;;;;;;;69.00;25.17;;;;;;;0.18;93.10;100953.09;10447913;28;20052;-78
2023/12/03 07:55:13;;;;;;;49.88;19.38;;;;;;;0.02;90.69;100951.78;10428007;28;20037;-78
2023/12/03 08:00:18;;;;;;;61.08;23.80;;;;;;;-0.52;94.44;100951.47;10452513;28;20127;-78
2023/12/03 08:05:23;;;;;;;60.75;22.92;;;;;;;-0.74;97.49;100961.72;10448848;28;20045;-79
2023/12/03 08:10:27;;;;;;;52.75;20.98;;;;;;;-0.91;98.85;100966.53;10479330;28;20480;-79
2023/12/03 08:15:31;;;;;;;54.20;19.50;;;;;;;-1.17;100.00;100962.75;10455063;28;20052;-76
2023/12/03 08:20:34;;;;;;;62.80;24.38;;;;;;;-0.99;100.00;100976.38;10459738;28;20080;-77
2023/12/03 08:25:37;;;;;;;53.33;19.13;;;;;;;-1.34;100.00;100971.91;10458218;28;20035;-79
2023/12/03 08:30:42;;;;;;;59.20;22.13;;;;;;;-0.76;100.00;100971.44;10454062;28;20241;-77
2023/12/03 08:35:45;;;;;;;54.97;22.00;;;;;;;-0.51;100.00;100979.59;10437173;28;20080;-77
2023/12/03 08:40:48;;;;;;;65.20;23.90;;;;;;;-0.33;100.00;100988.81;10440911;28;20100;-78
2023/12/03 08:45:53;;;;;;;58.13;21.67;;;;;;;-0.37;99.80;100992.44;10472574;28;20049;-77
2023/12/03 08:50:56;;;;;;;65.90;24.90;;;;;;;-0.28;99.98;100996.59;10470682;28;20044;-77
2023/12/03 08:56:00;;;;;;;57.00;22.33;;;;;;;-0.21;99.40;100999.97;10486997;28;20495;-77
2023/12/03 09:01:06;;;;;;;58.53;22.85;;;;;;;-0.13;99.87;100995.34;10453543;28;20051;-78
2023/12/03 09:06:13;;;;;;;63.90;24.05;;;;;;;-0.12;99.87;101002.34;10433937;28;20042;-78
2023/12/03 09:11:16;;;;;;;57.70;21.45;;;;;;;-0.04;100.00;101003.00;10465037;28;20052;-77
2023/12/03 09:16:21;;;;;;;60.10;21.08;;;;;;;-0.12;99.57;100999.72;10459241;28;20045;-78
2023/12/03 09:21:24;;;;;;;62.15;22.17;;;;;;;-0.09;100.00;101010.19;10460525;28;20076;-78
2023/12/03 09:26:27;;;;;;;51.72;23.10;;;;;;;-0.14;99.89;101020.00;10467964;28;20051;-78
2023/12/03 09:31:31;;;;;;;63.85;22.13;;;;;;;-0.04;100.00;101016.22;10460715;28;20037;-78
2023/12/03 09:36:35;;;;;;;68.68;24.48;;;;;;;0.04;100.00;101022.16;10467230;28;20040;-80
2023/12/03 09:41:45;;;;;;;62.83;22.02;;;;;;;0.08;99.49;101029.09;10472547;28;20136;-78
2023/12/03 09:46:51;;;;;;;56.47;21.77;;;;;;;0.06;100.00;101032.69;10468025;28;20041;-78
2023/12/03 09:51:58;;;;;;;63.60;23.60;;;;;;;-0.04;100.00;101034.72;10487623;28;20060;-78
2023/12/03 09:57:06;;;;;;;68.82;24.40;;;;;;;-0.04;100.00;101028.56;10458522;28;20056;-79
2023/12/03 10:02:14;;;;;;;83.85;27.27;;;;;;;-0.23;100.00;101031.69;10473017;28;20040;-79
2023/12/03 10:07:18;;;;;;;88.13;29.02;;;;;;;-0.23;100.00;101042.25;10470307;28;20052;-78
2023/12/03 10:12:25;;;;;;;96.03;30.35;;;;;;;-0.04;100.00;101045.28;10454793;28;20053;-78
2023/12/03 10:17:30;;;;;;;102.88;33.25;;;;;;;-0.04;100.00;101042.63;10458215;28;20048;-79
2023/12/03 10:22:35;;;;;;;107.22;33.90;;;;;;;0.03;100.00;101049.50;10462786;28;20053;-79
2023/12/03 10:27:39;;;;;;;105.55;35.13;;;;;;;0.30;100.00;101045.25;10455996;28;20045;-79
2023/12/03 10:32:47;;;;;;;100.65;35.28;;;;;;;0.52;100.00;101047.25;10462181;28;20045;-79
2023/12/03 10:37:51;;;;;;;109.68;35.15;;;;;;;0.59;100.00;101043.53;10471925;28;20049;-78
2023/12/03 10:42:54;;;;;;;106.15;36.65;;;;;;;0.58;98.20;101036.53;10449777;28;20128;-78
2023/12/03 10:48:01;;;;;;;95.22;36.60;;;;;;;0.47;98.05;101034.19;10448230;28;20033;-78
2023/12/03 10:53:05;;;;;;;96.18;36.75;;;;;;;0.33;98.75;101031.03;10439326;28;20687;-79
2023/12/03 10:58:10;;;;;;;99.70;37.25;;;;;;;0.47;98.29;101028.91;10445107;28;20037;-78
2023/12/03 11:03:20;;;;;;;89.32;34.95;;;;;;;0.61;97.52;101017.91;10409070;28;20404;-79
2023/12/03 11:08:25;;;;;;;90.00;36.63;;;;;;;0.81;97.69;101015.53;10431939;28;20038;-79
2023/12/03 11:13:32;;;;;;;95.93;35.53;;;;;;;0.76;97.08;101014.78;10441946;28;20044;-78
2023/12/03 11:18:54;;;;;;;85.75;33.95;;;;;;;0.78;95.53;101012.13;10429532;28;20049;-79
2023/12/03 11:24:17;;;;;;;81.65;36.58;;;;;;;0.71;93.96;100994.69;10429894;28;20088;-79
2023/12/03 11:29:47;;;;;;;84.80;33.30;;;;;;;1.02;95.56;100995.50;10439962;28;20048;-77
2023/12/03 11:35:00;;;;;;;74.40;32.72;;;;;;;1.66;90.41;100984.53;10443564;28;20064;-78
2023/12/03 11:40:09;;;;;;;73.00;29.98;;;;;;;1.29;89.50;100990.22;10438574;28;20029;-78
2023/12/03 11:45:21;;;;;;;70.18;30.27;;;;;;;1.41;90.73;100983.66;10433546;28;20124;-78
2023/12/03 11:50:26;;;;;;;50.75;20.73;;;;;;;1.58;86.03;100985.72;10431148;28;20073;-78
2023/12/03 11:55:34;;;;;;;52.65;24.20;;;;;;;2.40;81.85;100966.84;10449439;28;20128;-78
2023/12/03 12:00:45;;;;;;;48.33;19.77;;;;;;;1.96;81.46;100979.09;10458834;28;20053;-80
2023/12/03 12:05:51;;;;;;;52.50;24.80;;;;;;;3.09;81.30;100965.97;10462185;28;20504;-80
2023/12/03 12:10:54;;;;;;;51.10;23.55;;;;;;;4.71;79.62;100976.56;10460430;28;20041;-79
2023/12/03 12:15:59;;;;;;;43.35;19.33;;;;;;;4.68;71.01;100973.22;10465930;28;20048;-79
2023/12/03 12:21:10;;;;;;;43.35;21.13;;;;;;;4.33;70.63;100965.06;10462928;28;20439;-82
2023/12/03 12:26:14;;;;;;;43.00;21.38;;;;;;;4.18;76.00;100967.47;10468103;28;20060;-81
2023/12/03 12:31:19;;;;;;;44.78;22.75;;;;;;;4.43;76.23;100958.38;10468788;28;20043;-79
2023/12/03 12:36:24;;;;;;;41.95;20.60;;;;;;;4.35;76.95;100955.22;10482298;28;20045;-80
2023/12/03 12:41:37;;;;;;;38.50;19.77;;;;;;;3.77;74.13;100958.69;10454803;28;20045;-79
2023/12/03 12:46:52;;;;;;;36.40;19.90;;;;;;;3.06;76.19;100956.34;10454271;28;20074;-81
2023/12/03 12:52:12;;;;;;;34.75;18.27;;;;;;;2.48;79.18;100957.75;10435601;28;20384;-79
2023/12/03 12:57:17;;;;;;;31.60;17.10;;;;;;;3.74;83.95;100950.84;10459621;28;20092;-79
2023/12/03 13:02:21;;;;;;;30.75;15.95;;;;;;;4.24;77.59;100950.38;10451229;28;20439;-80
2023/12/03 13:07:26;;;;;;;32.22;15.50;;;;;;;4.70;79.39;100937.59;10472970;28;20132;-79
2023/12/03 13:12:29;;;;;;;28.25;15.40;;;;;;;4.98;76.59;100941.59;10425872;28;20547;-80
2023/12/03 13:17:32;;;;;;;27.58;14.43;;;;;;;4.16;70.86;100929.44;10432408;28;20057;-81
2023/12/03 13:22:37;;;;;;;24.85;13.63;;;;;;;3.96;72.62;100945.44;10435754;28;20076;-80
2023/12/03 13:27:41;;;;;;;28.98;14.88;;;;;;;3.69;70.54;100932.44;10451984;28;20041;-80
2023/12/03 13:32:45;;;;;;;25.48;14.27;;;;;;;3.01;72.57;100949.47;10427421;28;20107;-80
2023/12/03 13:37:49;;;;;;;28.80;14.82;;;;;;;2.82;73.77;100944.91;10434270;28;20081;-82
2023/12/03 13:42:53;;;;;;;28.98;14.70;;;;;;;2.93;74.51;100944.47;10453491;28;20051;-80
2023/12/03 13:47:57;;;;;;;28.13;15.27;;;;;;;2.80;75.76;100944.13;10456471;28;20033;-80
2023/12/03 13:53:01;;;;;;;26.27;14.57;;;;;;;2.60;75.79;100947.53;10485758;28;20021;-81
2023/12/03 13:58:04;;;;;;;32.80;15.43;;;;;;;1.93;76.58;100950.91;10485579;28;20040;-79
2023/12/03 14:03:07;;;;;;;33.60;15.43;;;;;;;1.51;79.59;100963.91;10459953;28;20041;-82
2023/12/03 14:08:12;;;;;;;34.72;16.73;;;;;;;1.22;80.32;100963.06;10452647;28;20076;-81
2023/12/03 14:13:15;;;;;;;30.77;16.17;;;;;;;0.98;81.28;100964.72;10454954;28;20053;-80
2023/12/03 14:18:18;;;;;;;33.33;16.80;;;;;;;0.96;82.00;100956.00;10447250;28;20048;-80
2023/12/03 14:23:23;;;;;;;37.25;17.80;;;;;;;1.53;80.69;100942.66;10463261;28;20196;-81
2023/12/03 14:28:27;;;;;;;34.10;15.70;;;;;;;1.36;79.48;100932.63;10465500;28;20045;-80
2023/12/03 14:33:31;;;;;;;36.15;17.38;;;;;;;1.13;79.62;100938.72;10452902;28;20132;-79
2023/12/03 14:38:36;;;;;;;32.47;16.98;;;;;;;0.93;81.50;100948.13;10449470;28;20037;-80
2023/12/03 14:43:39;;;;;;;32.92;17.02;;;;;;;0.81;82.76;100944.09;10456632;28;20046;-81
2023/12/03 14:48:42;;;;;;;33.85;16.40;;;;;;;0.69;84.13;100938.38;10461143;28;20587;-82
2023/12/03 14:53:47;;;;;;;36.97;17.80;;;;;;;0.54;84.90;100951.13;10459468;28;20154;-81
2023/12/03 14:58:51;;;;;;;35.00;17.27;;;;;;;0.39;84.55;100946.31;10468328;28;20033;-79
2023/12/03 15:03:54;;;;;;;36.65;18.65;;;;;;;0.44;86.41;100943.50;10449878;28;20563;-79
2023/12/03 15:08:58;;;;;;;35.58;17.73;;;;;;;0.33;87.80;100947.34;10447391;28;20095;-80
2023/12/03 15:14:01;;;;;;;45.22;20.13;;;;;;;0.22;88.43;100941.53;10460138;28;20092;-80
2023/12/03 15:19:04;;;;;;;37.70;18.65;;;;;;;0.15;89.69;100945.25;10487170;28;20078;-80
2023/12/03 15:24:09;;;;;;;40.22;19.77;;;;;;;0.08;90.32;100936.66;10470689;28;20053;-80
2023/12/03 15:29:12;;;;;;;43.22;20.55;;;;;;;0.02;90.62;100947.34;10451409;28;20079;-79
2023/12/03 15:34:15;;;;;;;33.50;18.20;;;;;;;-0.02;90.34;100948.38;10468141;28;20044;-79
2023/12/03 15:39:19;;;;;;;37.40;19.83;;;;;;;-0.06;90.98;100949.34;10461792;28;20071;-80
2023/12/03 15:44:25;;;;;;;44.50;22.58;;;;;;;-0.10;92.02;100943.28;10455367;28;20048;-80
2023/12/03 15:49:28;;;;;;;46.83;23.30;;;;;;;-0.12;93.01;100945.09;10456992;28;20077;-80
2023/12/03 15:54:33;;;;;;;44.83;22.48;;;;;;;-0.15;93.45;100947.84;10462344;28;20084;-81
2023/12/03 15:59:37;;;;;;;43.75;22.35;;;;;;;-0.20;93.84;100948.88;10490837;28;20041;-81
2023/12/03 16:04:43;;;;;;;43.80;22.42;;;;;;;-0.27;94.55;100937.63;10466196;28;20077;-81
2023/12/03 16:09:48;;;;;;;41.60;22.25;;;;;;;-0.31;94.29;100928.91;10459795;28;20048;-80
2023/12/03 16:14:52;;;;;;;41.42;20.88;;;;;;;-0.39;93.68;100940.56;10465097;28;20045;-79
2023/12/03 16:19:57;;;;;;;45.65;20.48;;;;;;;-0.45;93.28;100928.41;10462045;28;20060;-79
2023/12/03 16:25:02;;;;;;;44.17;22.48;;;;;;;-0.44;92.81;100922.22;10500409;28;20045;-79
2023/12/03 16:30:07;;;;;;;68.53;31.08;;;;;;;-0.37;92.16;100923.78;10487638;28;20144;-81
2023/12/03 16:35:12;;;;;;;51.95;25.23;;;;;;;-0.33;90.01;100922.81;10471474;28;20045;-79
2023/12/03 16:40:21;;;;;;;42.92;20.38;;;;;;;-0.38;89.84;100914.16;10479958;28;20094;-79
2023/12/03 16:45:25;;;;;;;45.60;22.85;;;;;;;-0.41;89.94;100911.59;10481805;28;20135;-80
2023/12/03 16:50:28;;;;;;;43.20;20.13;;;;;;;-0.55;89.47;100914.63;10488040;28;20095;-80
2023/12/03 16:55:33;;;;;;;43.30;20.85;;;;;;;-0.61;89.83;100916.53;10466886;28;20041;-79
2023/12/03 17:00:36;;;;;;;49.70;22.52;;;;;;;-0.67;90.03;100903.50;10477331;28;20110;-80
2023/12/03 17:05:39;;;;;;;47.17;22.15;;;;;;;-0.72;90.29;100904.47;10483331;28;20045;-78
2023/12/03 17:10:44;;;;;;;44.10;21.98;;;;;;;-0.68;90.92;100905.28;10477829;28;20046;-80
2023/12/03 17:15:47;;;;;;;56.00;25.08;;;;;;;-0.67;91.63;100908.78;10469829;28;20124;-79
2023/12/03 17:20:51;;;;;;;60.15;28.92;;;;;;;-0.72;91.98;100908.88;10479807;28;20037;-79
2023/12/03 17:25:56;;;;;;;46.97;24.55;;;;;;;-0.72;92.16;100903.63;10481229;28;20053;-81
2023/12/03 17:30:59;;;;;;;46.80;22.70;;;;;;;-0.76;92.20;100901.97;10483670;28;20044;-79
2023/12/03 17:36:03;;;;;;;43.58;20.95;;;;;;;-0.83;91.82;100903.88;10472881;28;20056;-80
2023/12/03 17:41:08;;;;;;;46.17;22.88;;;;;;;-0.97;91.13;100896.31;10468262;28;20044;-79
2023/12/03 17:46:11;;;;;;;50.42;23.90;;;;;;;-1.01;90.87;100904.38;10468201;28;20052;-81
2023/12/03 17:51:14;;;;;;;50.10;24.00;;;;;;;-1.06;90.51;100899.19;10476553;28;20069;-80
2023/12/03 17:56:18;;;;;;;45.17;22.95;;;;;;;-1.05;90.42;100900.91;10471309;28;20052;-80
2023/12/03 18:01:21;;;;;;;49.83;24.40;;;;;;;-1.25;89.47;100882.97;10484760;28;20054;-82
2023/12/03 18:06:25;;;;;;;47.75;23.48;;;;;;;-1.24;89.80;100883.81;10457792;28;20600;-80
2023/12/03 18:11:30;;;;;;;49.42;21.17;;;;;;;-1.26;89.83;100889.16;10468737;28;20033;-81
2023/12/03 18:16:36;;;;;;;42.40;21.08;;;;;;;-1.29;90.01;100881.31;10475778;28;20057;-79
2023/12/03 18:21:41;;;;;;;40.65;20.80;;;;;;;-1.42;89.15;100870.19;10468322;28;20065;-80
2023/12/03 18:26:48;;;;;;;43.25;20.27;;;;;;;-1.36;88.63;100870.94;10491711;28;20117;-81
2023/12/03 18:31:51;;;;;;;46.67;20.42;;;;;;;-1.41;87.91;100865.78;10472526;28;20045;-79
2023/12/03 18:36:54;;;;;;;34.97;19.40;;;;;;;-1.31;87.46;100862.03;10467568;28;20060;-80
2023/12/03 18:41:59;;;;;;;37.25;19.83;;;;;;;-1.38;86.70;100860.44;10463476;28;20522;-79
2023/12/03 18:47:02;;;;;;;38.70;19.55;;;;;;;-1.37;85.51;100858.66;10494955;28;20253;-80
2023/12/03 18:52:07;;;;;;;42.95;19.20;;;;;;;-1.36;84.93;100853.34;10483334;28;20109;-82
2023/12/03 18:57:14;;;;;;;43.22;20.30;;;;;;;-1.48;84.91;100856.28;10491830;28;20060;-83
2023/12/03 19:02:19;;;;;;;32.10;16.15;;;;;;;-1.49;83.97;100842.25;10491085;28;20045;-81
2023/12/03 19:13:46;;;;;;;38.13;20.25;;;;;;;-1.46;84.56;100850.06;10492365;28;20032;-79
2023/12/03 19:18:50;;;;;;;39.13;20.48;;;;;;;-1.59;84.42;100847.75;10489104;28;20041;-80
2023/12/03 19:23:54;;;;;;;40.35;19.90;;;;;;;-1.66;83.67;100850.53;10475046;28;20047;-81
2023/12/03 19:28:59;;;;;;;38.25;19.00;;;;;;;-1.72;83.23;100845.41;10470049;28;20136;-81
2023/12/03 19:34:02;;;;;;;41.53;19.88;;;;;;;-1.65;82.98;100843.50;10441936;28;20053;-81
2023/12/03 19:39:06;;;;;;;40.42;20.10;;;;;;;-1.76;82.49;100838.47;10462537;28;20072;-81
2023/12/03 19:44:10;;;;;;;38.85;19.60;;;;;;;-1.69;82.84;100832.19;10490174;28;20138;-81
2023/12/03 19:49:14;;;;;;;49.33;22.20;;;;;;;-1.67;82.52;100833.00;10449482;28;20099;-81
2023/12/03 19:54:17;;;;;;;41.58;19.08;;;;;;;-1.61;82.18;100842.53;10457620;28;20049;-79
2023/12/03 19:59:21;;;;;;;38.55;19.08;;;;;;;-1.54;82.24;100837.97;10440601;28;20092;-78
2023/12/03 20:04:24;;;;;;;41.83;19.70;;;;;;;-1.63;81.67;100839.94;10455710;28;20044;-78
2023/12/03 20:09:27;;;;;;;36.80;17.63;;;;;;;-1.55;81.48;100831.84;10454618;28;20037;-78
2023/12/03 20:14:33;;;;;;;32.00;14.88;;;;;;;-1.60;79.69;100839.00;10476481;28;20504;-79
2023/12/03 20:19:36;;;;;;;32.90;15.82;;;;;;;-1.51;79.12;100838.78;10464854;28;20041;-79
2023/12/03 20:24:40;;;;;;;36.20;17.55;;;;;;;-1.56;78.12;100827.50;10471664;28;20045;-78
2023/12/03 20:29:44;;;;;;;33.25;15.27;;;;;;;-1.49;78.00;100813.25;10491556;28;20052;-78
2023/12/03 20:34:49;;;;;;;34.90;15.60;;;;;;;-1.44;78.13;100813.16;10469729;28;20107;-78
2023/12/03 20:39:52;;;;;;;32.63;15.85;;;;;;;-1.42;78.30;100795.53;10469623;28;20041;-78
2023/12/03 20:44:57;;;;;;;32.28;14.40;;;;;;;-1.45;77.55;100790.34;10461390;28;20052;-80
2023/12/03 20:50:02;;;;;;;34.80;17.27;;;;;;;-1.42;77.49;100782.34;10476353;28;20051;-78
2023/12/03 20:55:06;;;;;;;35.28;16.08;;;;;;;-1.48;76.44;100780.75;10448737;28;20783;-79
2023/12/03 21:00:12;;;;;;;37.72;16.90;;;;;;;-1.37;76.44;100774.31;10454098;28;20538;-78
2023/12/03 21:05:15;;;;;;;41.30;18.35;;;;;;;-1.36;76.62;100757.63;10452771;28;20044;-78
2023/12/03 21:10:23;;;;;;;41.60;18.10;;;;;;;-1.30;76.54;100746.91;10454356;28;20048;-77
2023/12/03 21:15:29;;;;;;;41.22;17.48;;;;;;;-1.26;76.37;100749.44;10444024;28;20052;-78
2023/12/03 21:20:32;;;;;;;24.77;11.88;;;;;;;-1.38;75.36;100749.75;10461640;28;20037;-79
2023/12/03 21:25:36;;;;;;;42.00;18.25;;;;;;;-1.37;75.49;100733.03;10452887;28;20462;-78
2023/12/03 21:30:40;;;;;;;38.25;18.92;;;;;;;-1.31;74.93;100726.75;10450609;28;20457;-77
2023/12/03 21:35:46;;;;;;;40.10;17.95;;;;;;;-1.33;75.63;100712.72;10448681;28;20076;-78
2023/12/03 21:40:49;;;;;;;39.00;18.40;;;;;;;-1.36;75.37;100707.53;10444894;28;20101;-79
2023/12/03 21:45:55;;;;;;;37.25;17.13;;;;;;;-1.15;75.50;100691.16;10446212;28;20049;-81
2023/12/03 21:50:58;;;;;;;42.92;19.75;;;;;;;-1.25;75.37;100687.88;10465489;28;20040;-81
2023/12/03 21:56:01;;;;;;;43.38;20.38;;;;;;;-1.27;75.55;100683.56;10459816;28;20500;-78
2023/12/03 22:01:07;;;;;;;44.50;19.13;;;;;;;-1.16;76.02;100686.75;10457046;28;20064;-79
2023/12/03 22:06:11;;;;;;;46.30;20.98;;;;;;;-1.18;75.81;100688.56;10435878;28;20059;-79
2023/12/03 22:11:14;;;;;;;44.47;19.90;;;;;;;-1.03;75.79;100689.94;10471853;28;20064;-78
2023/12/03 22:16:18;;;;;;;40.20;19.20;;;;;;;-1.09;75.70;100677.78;10439900;28;20057;-79
2023/12/03 22:21:21;;;;;;;39.20;18.50;;;;;;;-0.98;74.51;100685.41;10446239;28;20128;-79
2023/12/03 22:26:24;;;;;;;37.05;16.75;;;;;;;-1.14;75.75;100684.97;10448832;28;20053;-79
2023/12/03 22:31:29;;;;;;;36.10;16.60;;;;;;;-1.00;76.34;100684.56;10486742;28;20048;-79
2023/12/03 22:36:32;;;;;;;39.33;17.27;;;;;;;-0.98;76.81;100686.25;10458580;28;20045;-79
2023/12/03 22:41:35;;;;;;;42.45;19.17;;;;;;;-1.08;77.45;100689.19;10445924;28;20492;-78
2023/12/03 22:46:40;;;;;;;39.63;17.80;;;;;;;-1.27;78.65;100691.47;10456635;28;20053;-78
2023/12/03 22:51:43;;;;;;;45.53;20.40;;;;;;;-1.18;79.80;100692.09;10428936;28;20053;-78
2023/12/03 22:56:46;;;;;;;45.05;19.75;;;;;;;-1.31;82.70;100684.56;10426681;28;20436;-78